createdAt,value
2022-07-29T00:00:28.271Z,2.0
2022-07-29T00:01:28.161Z,1.5
2022-07-29T00:02:28.635Z,1.7
2022-07-29T00:03:28.158Z,1.8
2022-07-29T00:04:28.284Z,2.3
2022-07-29T00:05:28.278Z,1.9
2022-07-29T00:06:28.164Z,2.3
2022-07-29T00:07:28.522Z,2.0
2022-07-29T00:08:28.111Z,1.7
2022-07-29T00:09:28.441Z,2.5
2022-07-29T00:10:28.190Z,1.8
2022-07-29T00:11:28.240Z,1.7
2022-07-29T00:12:28.171Z,1.7
2022-07-29T00:13:31.774Z,1.1
2022-07-29T00:14:29.034Z,1.5
2022-07-29T00:15:28.262Z,1.8
2022-07-29T00:16:28.223Z,1.7
2022-07-29T00:17:28.316Z,1.7
2022-07-29T00:18:28.163Z,1.4
2022-07-29T00:19:28.189Z,1.9
2022-07-29T00:20:28.143Z,1.3
2022-07-29T00:22:28.139Z,0.9
2022-07-29T00:23:28.229Z,0.7
2022-07-29T00:24:28.409Z,1.0
2022-07-29T00:26:32.746Z,0.9
2022-07-29T00:27:28.148Z,0.7
2022-07-29T00:28:28.164Z,0.9
2022-07-29T00:29:34.121Z,1.1
2022-07-29T00:30:28.202Z,1.1
2022-07-29T00:33:28.166Z,0.6
2022-07-29T00:34:37.503Z,1.2
2022-07-29T00:35:37.510Z,1.1
2022-07-29T00:36:28.150Z,1.1
2022-07-29T00:37:28.517Z,0.9
2022-07-29T00:38:28.163Z,0.8
2022-07-29T00:39:28.120Z,1.3
2022-07-29T00:40:28.221Z,1.0
2022-07-29T00:41:28.107Z,0.8
2022-07-29T00:42:28.645Z,0.6
2022-07-29T00:43:28.560Z,0.8
2022-07-29T00:44:28.128Z,0.9
2022-07-29T00:45:28.223Z,1.7
2022-07-29T00:46:28.509Z,1.3
2022-07-29T00:47:28.120Z,1.8
2022-07-29T00:48:28.134Z,1.0
2022-07-29T00:49:28.378Z,0.7
2022-07-29T00:50:28.773Z,1.2
2022-07-29T00:51:28.903Z,1.0
2022-07-29T00:52:28.496Z,1.1
2022-07-29T00:53:28.476Z,0.9
2022-07-29T00:55:28.665Z,0.7
2022-07-29T00:56:28.439Z,0.7
2022-07-29T00:57:28.199Z,0.5
2022-07-29T00:58:29.171Z,0.6
2022-07-29T00:59:34.735Z,0.4
2022-07-29T01:00:30.538Z,0.6
2022-07-29T01:01:29.699Z,0.5
2022-07-29T01:02:28.353Z,0.6
2022-07-29T01:03:28.199Z,0.7
2022-07-29T01:04:30.913Z,0.8
2022-07-29T01:05:48.511Z,0.8
2022-07-29T01:06:29.070Z,0.6
2022-07-29T01:07:29.291Z,0.7
2022-07-29T01:08:28.407Z,0.9
2022-07-29T01:09:42.175Z,0.9
2022-07-29T01:10:28.759Z,0.9
2022-07-29T01:11:28.332Z,1.0
2022-07-29T01:12:30.398Z,1.2
2022-07-29T01:13:28.511Z,1.3
2022-07-29T01:14:29.818Z,1.5
2022-07-29T01:15:28.503Z,1.2
2022-07-29T01:16:34.039Z,1.0
2022-07-29T01:17:38.885Z,1.4
2022-07-29T01:18:35.738Z,2.0
2022-07-29T01:19:46.032Z,1.8
2022-07-29T01:20:41.391Z,1.3
2022-07-29T01:21:37.673Z,1.3
2022-07-29T01:23:45.987Z,1.5
2022-07-29T01:24:36.767Z,1.5
2022-07-29T01:26:43.786Z,1.4
2022-07-29T01:27:38.028Z,1.4
2022-07-29T01:28:46.075Z,0.8
2022-07-29T01:29:40.384Z,0.8
2022-07-29T01:30:30.139Z,1.3
2022-07-29T01:31:49.139Z,1.4
2022-07-29T01:32:33.255Z,1.5
2022-07-29T01:33:40.519Z,1.9
2022-07-29T01:34:37.997Z,1.5
2022-07-29T01:35:35.782Z,1.5
2022-07-29T01:36:41.620Z,1.3
2022-07-29T01:37:38.359Z,1.0
2022-07-29T01:38:30.889Z,1.3
2022-07-29T01:39:34.389Z,1.2
2022-07-29T01:40:39.139Z,1.4
2022-07-29T01:41:33.179Z,1.5
2022-07-29T01:42:30.385Z,1.5
2022-07-29T01:43:41.655Z,1.3
2022-07-29T01:44:36.234Z,0.8
2022-07-29T01:45:39.525Z,0.9
2022-07-29T01:46:36.729Z,0.7
2022-07-29T01:47:36.647Z,0.9
2022-07-29T01:48:39.264Z,1.3
2022-07-29T01:49:33.487Z,0.9
2022-07-29T01:54:39.330Z,1.0
2022-07-29T01:55:32.921Z,0.8
2022-07-29T01:56:32.247Z,0.8
2022-07-29T01:57:32.677Z,0.7
2022-07-29T01:58:30.797Z,0.7
2022-07-29T01:59:28.770Z,1.0
2022-07-29T02:00:29.371Z,0.9
2022-07-29T02:01:29.935Z,0.9
2022-07-29T02:02:30.193Z,1.7
2022-07-29T02:03:29.520Z,1.9
2022-07-29T02:04:30.404Z,1.7
2022-07-29T02:05:30.836Z,1.2
2022-07-29T02:06:29.487Z,1.8
2022-07-29T02:07:30.989Z,1.0
2022-07-29T02:08:29.880Z,0.5
2022-07-29T02:09:29.647Z,0.7
2022-07-29T02:10:31.504Z,0.9
2022-07-29T02:11:28.143Z,1.4
2022-07-29T02:12:30.263Z,0.7
2022-07-29T02:14:31.710Z,1.1
2022-07-29T02:15:32.313Z,0.6
2022-07-29T02:16:32.114Z,0.8
2022-07-29T02:17:34.338Z,0.9
2022-07-29T02:18:32.121Z,1.2
2022-07-29T02:19:29.542Z,1.0
2022-07-29T02:20:30.022Z,1.2
2022-07-29T02:21:29.900Z,1.1
2022-07-29T02:22:31.109Z,1.1
2022-07-29T02:23:29.161Z,1.2
2022-07-29T02:24:29.186Z,1.1
2022-07-29T02:25:36.787Z,0.8
2022-07-29T02:26:28.681Z,1.2
2022-07-29T02:27:30.675Z,1.9
2022-07-29T02:28:30.336Z,1.6
2022-07-29T02:29:30.328Z,1.7
2022-07-29T02:30:29.098Z,1.4
2022-07-29T02:31:36.262Z,1.6
2022-07-29T02:32:29.584Z,1.3
2022-07-29T02:33:30.108Z,3.3
2022-07-29T02:34:29.867Z,3.0
2022-07-29T02:35:28.542Z,2.5
2022-07-29T02:36:28.895Z,1.7
2022-07-29T02:37:30.359Z,1.5
2022-07-29T02:38:39.296Z,1.2
2022-07-29T02:39:30.295Z,2.4
2022-07-29T02:40:28.288Z,2.4
2022-07-29T02:41:39.389Z,2.5
2022-07-29T02:42:30.215Z,1.7
2022-07-29T02:43:28.788Z,2.0
2022-07-29T02:44:34.144Z,1.7
2022-07-29T02:45:28.582Z,1.3
2022-07-29T02:46:33.603Z,1.0
2022-07-29T02:47:41.778Z,1.2
2022-07-29T02:48:38.972Z,1.3
2022-07-29T02:50:35.810Z,1.3
2022-07-29T02:51:44.960Z,1.9
2022-07-29T02:52:38.732Z,1.3
2022-07-29T02:53:30.611Z,1.5
2022-07-29T02:54:33.698Z,1.8
2022-07-29T02:55:33.593Z,1.6
2022-07-29T02:56:36.157Z,1.3
2022-07-29T02:57:54.850Z,1.8
2022-07-29T02:58:31.622Z,1.5
2022-07-29T02:59:32.359Z,1.5
2022-07-29T03:00:30.596Z,1.2
2022-07-29T03:01:32.030Z,1.5
2022-07-29T03:02:30.446Z,1.5
2022-07-29T03:03:33.646Z,1.9
2022-07-29T03:04:30.396Z,0.7
2022-07-29T03:05:29.142Z,1.3
2022-07-29T03:06:38.540Z,0.9
2022-07-29T03:07:28.558Z,0.7
2022-07-29T03:08:29.562Z,1.1
2022-07-29T03:09:29.316Z,1.4
2022-07-29T03:10:29.534Z,1.1
2022-07-29T03:11:46.040Z,1.5
2022-07-29T03:12:28.438Z,1.0
2022-07-29T03:13:29.144Z,1.1
2022-07-29T03:14:28.051Z,0.8
2022-07-29T03:15:28.818Z,1.1
2022-07-29T03:16:28.236Z,0.9
2022-07-29T03:18:27.885Z,0.9
2022-07-29T03:19:28.628Z,1.4
2022-07-29T03:20:28.592Z,1.2
2022-07-29T03:21:27.724Z,1.7
2022-07-29T03:22:28.004Z,1.5
2022-07-29T03:23:35.180Z,1.9
2022-07-29T03:24:28.372Z,2.0
2022-07-29T03:25:28.496Z,1.0
2022-07-29T03:26:27.863Z,1.4
2022-07-29T03:27:27.615Z,1.7
2022-07-29T03:28:28.410Z,2.1
2022-07-29T03:29:33.425Z,1.8
2022-07-29T03:30:28.047Z,2.3
2022-07-29T03:31:27.728Z,1.7
2022-07-29T03:32:27.602Z,1.8
2022-07-29T03:33:27.688Z,2.1
2022-07-29T03:34:27.798Z,1.4
2022-07-29T03:35:27.778Z,1.8
2022-07-29T03:36:27.567Z,1.9
2022-07-29T03:37:27.914Z,2.6
2022-07-29T03:38:31.167Z,2.7
2022-07-29T03:39:31.523Z,3.2
2022-07-29T03:41:28.305Z,4.3
2022-07-29T03:43:32.658Z,3.0
2022-07-29T03:47:39.303Z,1.9
2022-07-29T03:48:30.436Z,1.3
2022-07-29T03:49:29.424Z,1.4
2022-07-29T03:50:27.822Z,1.5
2022-07-29T03:51:31.559Z,1.5
2022-07-29T03:52:27.938Z,1.2
2022-07-29T03:53:27.707Z,1.6
2022-07-29T03:54:28.105Z,1.3
2022-07-29T03:55:30.169Z,1.3
2022-07-29T03:56:29.616Z,1.6
2022-07-29T03:57:30.045Z,1.6
2022-07-29T03:58:29.492Z,2.4
2022-07-29T03:59:29.307Z,1.8
2022-07-29T04:00:28.923Z,1.9
2022-07-29T04:02:30.672Z,2.8
2022-07-29T04:04:27.953Z,3.3
2022-07-29T04:05:27.560Z,3.3
2022-07-29T04:06:27.741Z,3.5
2022-07-29T04:07:27.621Z,4.3
2022-07-29T04:09:27.933Z,4.9
2022-07-29T04:10:31.683Z,5.0
2022-07-29T04:12:27.559Z,4.1
2022-07-29T04:13:27.654Z,2.4
2022-07-29T04:14:27.604Z,1.9
2022-07-29T04:15:31.060Z,2.4
2022-07-29T04:16:27.815Z,2.4
2022-07-29T04:17:27.592Z,2.0
2022-07-29T04:18:27.640Z,2.2
2022-07-29T04:19:27.628Z,1.7
2022-07-29T04:20:27.674Z,1.4
2022-07-29T04:21:27.875Z,1.4
2022-07-29T04:22:27.645Z,1.7
2022-07-29T04:23:27.976Z,1.3
2022-07-29T04:25:27.572Z,1.0
2022-07-29T04:26:27.629Z,1.2
2022-07-29T04:27:27.925Z,2.1
2022-07-29T04:30:27.664Z,1.9
2022-07-29T04:32:28.086Z,1.6
2022-07-29T04:33:27.640Z,2.0
2022-07-29T04:36:29.410Z,2.7
2022-07-29T04:37:27.522Z,3.5
2022-07-29T04:43:27.720Z,4.0
2022-07-29T04:45:27.683Z,6.7
2022-07-29T04:47:27.626Z,8.1
2022-07-29T04:48:28.944Z,2.6
2022-07-29T04:49:27.702Z,3.1
2022-07-29T04:50:27.626Z,2.8
2022-07-29T04:51:27.650Z,3.6
2022-07-29T04:52:27.582Z,3.2
2022-07-29T04:53:28.053Z,2.3
2022-07-29T04:54:27.590Z,2.1
2022-07-29T04:55:27.692Z,2.1
2022-07-29T04:56:27.902Z,2.4
2022-07-29T04:57:27.594Z,2.3
2022-07-29T04:58:27.601Z,2.8
2022-07-29T04:59:28.210Z,3.1
2022-07-29T05:00:32.083Z,3.4
2022-07-29T05:01:27.646Z,4.6
2022-07-29T05:02:27.659Z,3.8
2022-07-29T05:03:27.547Z,3.6
2022-07-29T05:04:27.513Z,3.4
2022-07-29T05:05:27.608Z,3.4
2022-07-29T05:06:27.564Z,3.0
2022-07-29T05:07:27.545Z,2.6
2022-07-29T05:08:27.669Z,2.6
2022-07-29T05:09:27.626Z,3.5
2022-07-29T05:10:27.627Z,4.1
2022-07-29T05:11:30.534Z,2.1
2022-07-29T05:12:28.724Z,2.8
2022-07-29T05:13:27.511Z,2.1
2022-07-29T05:14:27.645Z,2.4
2022-07-29T05:15:28.198Z,2.9
2022-07-29T05:16:27.893Z,3.3
2022-07-29T05:17:27.723Z,3.4
2022-07-29T05:18:27.884Z,2.8
2022-07-29T05:19:27.559Z,2.6
2022-07-29T05:20:29.338Z,3.2
2022-07-29T05:22:27.630Z,2.4
2022-07-29T05:23:27.569Z,2.2
2022-07-29T05:24:27.827Z,2.7
2022-07-29T05:25:43.503Z,3.1
2022-07-29T05:26:27.605Z,2.1
2022-07-29T05:27:27.524Z,2.3
2022-07-29T05:28:27.506Z,2.0
2022-07-29T05:32:27.629Z,2.7
2022-07-29T05:34:27.637Z,2.2
2022-07-29T05:37:27.584Z,2.3
2022-07-29T05:40:27.582Z,2.4
2022-07-29T05:42:27.809Z,3.2
2022-07-29T05:46:27.804Z,4.6
2022-07-29T05:47:28.264Z,4.8
2022-07-29T05:48:27.562Z,2.6
2022-07-29T05:49:27.689Z,2.3
2022-07-29T05:50:27.495Z,2.9
2022-07-29T05:51:27.749Z,2.0
2022-07-29T05:52:27.894Z,2.5
2022-07-29T05:53:27.554Z,2.9
2022-07-29T05:54:27.553Z,2.7
2022-07-29T05:55:27.510Z,4.1
2022-07-29T05:56:27.906Z,3.8
2022-07-29T05:57:27.484Z,2.9
2022-07-29T06:00:27.867Z,2.3
2022-07-29T06:01:27.569Z,2.2
2022-07-29T06:02:27.721Z,1.7
2022-07-29T06:03:27.938Z,2.1
2022-07-29T06:04:27.539Z,2.7
2022-07-29T06:05:27.808Z,2.5
2022-07-29T06:07:27.511Z,3.7
2022-07-29T06:08:27.557Z,3.3
2022-07-29T06:09:29.219Z,2.5
2022-07-29T06:10:27.993Z,1.7
2022-07-29T06:11:27.722Z,2.7
2022-07-29T06:12:27.482Z,2.4
2022-07-29T06:13:27.579Z,2.2
2022-07-29T06:14:29.413Z,2.3
2022-07-29T06:15:27.522Z,2.8
2022-07-29T06:18:27.938Z,2.0
2022-07-29T06:19:27.632Z,1.7
2022-07-29T06:23:27.533Z,1.7
2022-07-29T06:24:28.200Z,1.6
2022-07-29T06:25:30.350Z,1.6
2022-07-29T06:26:30.429Z,2.7
2022-07-29T06:27:27.575Z,2.1
2022-07-29T06:28:27.546Z,2.0
2022-07-29T06:29:27.522Z,2.0
2022-07-29T06:30:27.781Z,2.6
2022-07-29T06:34:27.574Z,2.6
2022-07-29T06:35:38.296Z,3.1
2022-07-29T06:36:27.486Z,2.8
2022-07-29T06:37:27.428Z,3.3
2022-07-29T06:38:30.897Z,4.6
2022-07-29T06:39:27.533Z,2.8
2022-07-29T06:40:37.155Z,2.9
2022-07-29T06:41:27.503Z,2.9
2022-07-29T06:42:27.462Z,2.8
2022-07-29T06:43:28.289Z,3.2
2022-07-29T06:44:27.476Z,3.9
2022-07-29T06:45:27.696Z,4.3
2022-07-29T06:46:28.696Z,3.6
2022-07-29T06:47:27.503Z,3.4
2022-07-29T06:48:27.747Z,2.2
2022-07-29T06:49:28.777Z,2.9
2022-07-29T06:50:27.801Z,3.2
2022-07-29T06:51:28.513Z,4.2
2022-07-29T06:52:27.528Z,4.8
2022-07-29T06:53:28.170Z,5.2
2022-07-29T06:54:27.476Z,7.8
2022-07-29T06:55:31.087Z,7.7
2022-07-29T06:56:27.704Z,6.7
2022-07-29T06:57:27.487Z,6.1
2022-07-29T06:58:28.769Z,8.3
2022-07-29T06:59:33.541Z,5.6
2022-07-29T07:00:27.484Z,8.0
2022-07-29T07:01:27.651Z,5.9
2022-07-29T07:02:27.582Z,5.0
2022-07-29T07:03:27.535Z,4.2
2022-07-29T07:04:27.646Z,7.5
2022-07-29T07:06:28.552Z,4.3
2022-07-29T07:07:27.514Z,5.4
2022-07-29T07:08:28.087Z,4.6
2022-07-29T07:09:39.956Z,4.6
2022-07-29T07:11:27.682Z,3.6
2022-07-29T07:12:27.463Z,3.2
2022-07-29T07:13:29.181Z,3.2
2022-07-29T07:14:28.508Z,3.6
2022-07-29T07:15:38.829Z,3.7
2022-07-29T07:16:27.607Z,3.4
2022-07-29T07:17:27.446Z,3.9
2022-07-29T07:18:27.457Z,3.5
2022-07-29T07:20:27.625Z,2.9
2022-07-29T07:21:30.379Z,3.5
2022-07-29T07:25:27.821Z,2.9
2022-07-29T07:26:28.188Z,2.9
2022-07-29T07:27:28.487Z,2.6
2022-07-29T07:28:27.437Z,2.6
2022-07-29T07:29:27.491Z,3.5
2022-07-29T07:30:28.360Z,2.4
2022-07-29T07:31:27.591Z,2.2
2022-07-29T07:32:27.562Z,3.2
2022-07-29T07:34:28.157Z,3.5
2022-07-29T07:36:27.518Z,4.6
2022-07-29T07:37:27.815Z,5.2
2022-07-29T07:38:27.423Z,4.5
2022-07-29T07:39:27.454Z,6.5
2022-07-29T07:40:27.569Z,5.3
2022-07-29T07:41:27.609Z,4.6
2022-07-29T07:42:27.554Z,3.4
2022-07-29T07:43:27.507Z,3.1
2022-07-29T07:44:27.663Z,2.1
2022-07-29T07:45:27.868Z,1.8
2022-07-29T07:48:27.834Z,1.7
2022-07-29T07:49:27.525Z,1.6
2022-07-29T07:50:27.725Z,2.2
2022-07-29T07:51:27.998Z,3.3
2022-07-29T07:52:27.539Z,2.1
2022-07-29T07:53:27.589Z,2.7
2022-07-29T07:54:27.630Z,2.5
2022-07-29T07:55:27.945Z,2.6
2022-07-29T07:56:30.731Z,4.0
2022-07-29T07:57:27.518Z,3.7
2022-07-29T07:58:27.472Z,5.0
2022-07-29T07:59:27.511Z,6.1
2022-07-29T08:00:27.968Z,5.9
2022-07-29T08:01:27.454Z,4.9
2022-07-29T08:02:27.490Z,4.4
2022-07-29T08:03:27.410Z,4.6
2022-07-29T08:04:29.139Z,3.7
2022-07-29T08:05:27.420Z,3.3
2022-07-29T08:06:28.417Z,3.6
2022-07-29T08:07:27.479Z,3.3
2022-07-29T08:08:27.467Z,2.6
2022-07-29T08:09:30.517Z,2.8
2022-07-29T08:10:36.934Z,3.5
2022-07-29T08:12:27.537Z,3.5
2022-07-29T08:13:29.345Z,3.4
2022-07-29T08:14:27.520Z,3.3
2022-07-29T08:16:27.499Z,5.3
2022-07-29T08:17:27.777Z,4.6
2022-07-29T08:18:28.746Z,4.2
2022-07-29T08:19:27.553Z,5.1
2022-07-29T08:20:27.692Z,4.1
2022-07-29T08:21:27.503Z,4.5
2022-07-29T08:22:27.414Z,4.5
2022-07-29T08:23:47.816Z,5.3
2022-07-29T08:24:36.816Z,5.4
2022-07-29T08:25:27.363Z,5.4
2022-07-29T08:26:27.424Z,5.8
2022-07-29T08:27:43.119Z,4.7
2022-07-29T08:28:27.371Z,4.4
2022-07-29T08:29:27.417Z,5.1
2022-07-29T08:30:27.445Z,4.8
2022-07-29T08:31:27.477Z,5.5
2022-07-29T08:32:52.184Z,4.5
2022-07-29T08:33:27.453Z,5.5
2022-07-29T08:34:27.926Z,4.4
2022-07-29T08:35:30.957Z,5.4
2022-07-29T08:36:27.741Z,5.0
2022-07-29T08:37:27.358Z,5.3
2022-07-29T08:38:28.526Z,5.3
2022-07-29T08:39:27.854Z,5.4
2022-07-29T08:40:32.567Z,5.5
2022-07-29T08:41:28.032Z,5.7
2022-07-29T08:42:27.469Z,5.5
2022-07-29T08:43:27.665Z,6.1
2022-07-29T08:44:30.880Z,4.9
2022-07-29T08:45:27.751Z,5.4
2022-07-29T08:46:27.591Z,4.8
2022-07-29T08:47:29.245Z,4.7
2022-07-29T08:48:27.373Z,4.9
2022-07-29T08:49:27.487Z,4.4
2022-07-29T08:50:27.397Z,4.6
2022-07-29T08:51:29.006Z,5.0
2022-07-29T08:52:29.580Z,4.3
2022-07-29T08:53:29.763Z,3.7
2022-07-29T08:54:28.085Z,3.9
2022-07-29T08:55:28.020Z,3.9
2022-07-29T08:56:27.680Z,4.4
2022-07-29T08:57:27.954Z,4.8
2022-07-29T08:58:28.830Z,5.5
2022-07-29T08:59:29.310Z,4.2
2022-07-29T09:00:28.463Z,4.0
2022-07-29T09:01:35.226Z,4.4
2022-07-29T09:02:30.808Z,4.0
2022-07-29T09:03:32.628Z,3.0
2022-07-29T09:04:32.554Z,3.0
2022-07-29T09:05:28.682Z,3.2
2022-07-29T09:06:34.325Z,3.1
2022-07-29T09:07:27.372Z,2.4
2022-07-29T09:08:27.623Z,2.0
2022-07-29T09:09:28.027Z,1.9
2022-07-29T09:10:27.861Z,2.0
2022-07-29T09:11:27.880Z,4.0
2022-07-29T09:14:27.435Z,9.0
2022-07-29T09:15:27.446Z,6.6
2022-07-29T09:16:51.897Z,5.2
2022-07-29T09:17:45.106Z,2.3
2022-07-29T09:18:37.441Z,2.3
2022-07-29T09:19:31.008Z,2.3
2022-07-29T09:20:37.244Z,2.3
2022-07-29T09:21:46.156Z,2.2
2022-07-29T09:22:32.855Z,2.2
2022-07-29T09:23:27.323Z,2.3
2022-07-29T09:24:38.587Z,2.2
2022-07-29T09:25:36.803Z,2.4
2022-07-29T09:26:30.934Z,2.3
2022-07-29T09:28:27.411Z,2.5
2022-07-29T09:29:31.156Z,2.1
2022-07-29T09:30:31.373Z,2.0
2022-07-29T09:31:35.816Z,2.2
2022-07-29T09:32:28.114Z,2.8
2022-07-29T09:35:29.282Z,4.8
2022-07-29T09:36:27.491Z,6.0
2022-07-29T09:37:31.221Z,7.7
2022-07-29T09:41:28.624Z,6.6
2022-07-29T09:45:35.486Z,6.2
2022-07-29T09:47:46.145Z,7.3
2022-07-29T09:53:33.476Z,6.7
2022-07-29T09:54:29.132Z,5.8
2022-07-29T09:55:27.422Z,6.0
2022-07-29T09:56:44.040Z,4.6
2022-07-29T09:57:31.200Z,3.5
2022-07-29T09:58:28.831Z,3.9
2022-07-29T09:59:27.740Z,3.1
2022-07-29T10:00:28.156Z,4.0
2022-07-29T10:01:30.541Z,3.4
2022-07-29T10:02:32.685Z,1.7
2022-07-29T10:03:27.605Z,2.1
2022-07-29T10:04:43.785Z,1.6
2022-07-29T10:05:36.073Z,1.7
2022-07-29T10:06:27.363Z,2.2
2022-07-29T10:07:27.518Z,2.8
2022-07-29T10:10:30.021Z,3.4
2022-07-29T10:11:27.334Z,4.3
2022-07-29T10:12:27.295Z,3.4
2022-07-29T10:13:27.926Z,3.8
2022-07-29T10:14:27.409Z,3.4
2022-07-29T10:15:29.692Z,3.9
2022-07-29T10:16:33.699Z,4.3
2022-07-29T10:17:27.450Z,3.3
2022-07-29T10:18:27.414Z,3.2
2022-07-29T10:19:27.431Z,4.0
2022-07-29T10:20:28.992Z,4.6
2022-07-29T10:22:51.846Z,5.6
2022-07-29T10:23:27.964Z,6.0
2022-07-29T10:24:28.982Z,4.4
2022-07-29T10:25:28.495Z,4.9
2022-07-29T10:26:27.498Z,3.4
2022-07-29T10:27:27.594Z,3.8
2022-07-29T10:28:27.768Z,2.8
2022-07-29T10:29:28.488Z,2.6
2022-07-29T10:34:45.532Z,3.8
2022-07-29T10:35:31.439Z,3.9
2022-07-29T10:35:46.400Z,3.9
2022-07-29T10:36:03.679Z,3.7
2022-07-29T10:37:35.983Z,3.7
2022-07-29T10:39:49.725Z,4.8
2022-07-29T10:45:27.550Z,2.5
2022-07-29T10:47:28.634Z,3.2
2022-07-29T10:48:27.530Z,3.2
2022-07-29T10:49:30.377Z,3.1
2022-07-29T10:51:27.395Z,2.4
2022-07-29T10:54:37.328Z,9.2
2022-07-29T10:55:37.752Z,8.1
2022-07-29T10:57:53.994Z,8.7
2022-07-29T10:59:36.178Z,9.2
2022-07-29T11:00:31.606Z,10.9
2022-07-29T11:01:37.664Z,12.8
2022-07-29T11:02:41.908Z,13.6
2022-07-29T11:03:49.559Z,12.0
2022-07-29T11:04:45.383Z,8.1
2022-07-29T11:05:39.989Z,7.6
2022-07-29T11:06:36.618Z,11.5
2022-07-29T11:07:28.144Z,19.3
2022-07-29T11:08:28.118Z,22.0
2022-07-29T11:09:37.426Z,18.0
2022-07-29T11:10:31.196Z,16.5
2022-07-29T11:11:33.687Z,18.3
2022-07-29T11:12:39.949Z,21.6
2022-07-29T11:13:47.366Z,19.1
2022-07-29T11:14:45.435Z,20.5
2022-07-29T11:15:28.617Z,15.5
2022-07-29T11:16:27.743Z,11.9
2022-07-29T11:17:27.627Z,9.1
2022-07-29T11:18:27.327Z,6.1
2022-07-29T11:19:30.401Z,6.3
2022-07-29T11:21:55.011Z,7.0
2022-07-29T11:23:36.642Z,5.2
2022-07-29T11:24:29.619Z,6.8
2022-07-29T11:26:28.853Z,17.3
2022-07-29T11:27:40.571Z,25.4
2022-07-29T11:29:27.551Z,20.8
2022-07-29T11:31:44.773Z,22.2
2022-07-29T11:32:38.808Z,19.3
2022-07-29T11:33:37.546Z,21.9
2022-07-29T11:34:30.853Z,19.4
2022-07-29T11:35:37.976Z,21.7
2022-07-29T11:36:28.392Z,19.5
2022-07-29T11:38:31.870Z,32.2
2022-07-29T11:39:36.355Z,21.9
2022-07-29T11:40:27.328Z,21.6
2022-07-29T11:41:30.243Z,24.6
2022-07-29T11:42:35.991Z,26.9
2022-07-29T11:43:45.389Z,24.7
2022-07-29T11:44:45.340Z,19.4
2022-07-29T11:45:44.153Z,17.2
2022-07-29T11:46:46.369Z,16.9
2022-07-29T11:47:29.000Z,16.6
2022-07-29T11:48:36.752Z,15.3
2022-07-29T11:49:32.383Z,15.1
2022-07-29T11:50:33.537Z,20.0
2022-07-29T11:51:32.697Z,20.4
2022-07-29T11:52:49.764Z,18.2
2022-07-29T11:53:29.277Z,16.6
2022-07-29T11:54:33.523Z,14.6
2022-07-29T11:55:32.250Z,11.6
2022-07-29T11:56:32.357Z,9.3
2022-07-29T11:57:36.337Z,9.1
2022-07-29T11:58:28.747Z,10.2
2022-07-29T11:59:33.448Z,16.8
2022-07-29T12:00:38.860Z,14.5
2022-07-29T12:01:28.134Z,11.0
2022-07-29T12:02:38.147Z,11.6
2022-07-29T12:03:32.882Z,13.0
2022-07-29T12:04:28.440Z,13.4
2022-07-29T12:05:48.304Z,11.2
2022-07-29T12:06:27.259Z,10.3
2022-07-29T12:07:34.611Z,11.4
2022-07-29T12:08:28.753Z,14.0
2022-07-29T12:09:27.351Z,13.7
2022-07-29T12:10:32.647Z,13.0
2022-07-29T12:11:27.328Z,13.1
2022-07-29T12:12:27.644Z,15.9
2022-07-29T12:13:37.587Z,15.4
2022-07-29T12:15:31.527Z,17.5
2022-07-29T12:18:27.960Z,8.8
2022-07-29T12:19:27.907Z,10.2
2022-07-29T12:20:29.802Z,8.5
2022-07-29T12:21:28.795Z,6.9
2022-07-29T12:22:28.111Z,9.2
2022-07-29T12:23:29.485Z,8.5
2022-07-29T12:24:27.636Z,8.2
2022-07-29T12:25:32.590Z,6.5
2022-07-29T12:26:27.240Z,8.3
2022-07-29T12:27:28.567Z,7.6
2022-07-29T12:28:28.115Z,9.9
2022-07-29T12:29:35.100Z,10.3
2022-07-29T12:30:41.531Z,12.7
2022-07-29T12:31:43.304Z,11.6
2022-07-29T12:32:37.180Z,12.4
2022-07-29T12:33:30.608Z,12.0
2022-07-29T12:34:30.493Z,12.3
2022-07-29T12:35:27.390Z,13.9
2022-07-29T12:36:27.922Z,12.9
2022-07-29T12:37:40.754Z,12.5
2022-07-29T12:38:27.913Z,12.6
2022-07-29T12:39:29.211Z,11.4
2022-07-29T12:40:27.292Z,11.4
2022-07-29T12:41:29.257Z,12.0
2022-07-29T12:42:27.286Z,11.5
2022-07-29T12:43:27.939Z,11.4
2022-07-29T12:44:36.540Z,10.7
2022-07-29T12:45:31.992Z,9.4
2022-07-29T12:46:27.742Z,8.0
2022-07-29T12:47:27.249Z,8.0
2022-07-29T12:48:40.434Z,7.3
2022-07-29T12:49:27.865Z,7.3
2022-07-29T12:50:27.255Z,6.2
2022-07-29T12:51:38.396Z,7.2
2022-07-29T12:52:32.274Z,7.0
2022-07-29T12:53:28.013Z,7.4
2022-07-29T12:54:27.163Z,7.6
2022-07-29T12:56:42.376Z,8.4
2022-07-29T12:58:32.313Z,10.2
2022-07-29T12:59:27.191Z,10.3
2022-07-29T13:02:27.307Z,10.2
2022-07-29T13:03:27.266Z,10.6
2022-07-29T13:04:30.591Z,7.8
2022-07-29T13:05:48.826Z,7.6
2022-07-29T13:06:36.964Z,6.2
2022-07-29T13:07:54.418Z,6.9
2022-07-29T13:08:27.177Z,7.5
2022-07-29T13:09:44.082Z,9.3
2022-07-29T13:12:27.249Z,9.5
2022-07-29T13:13:27.157Z,8.2
2022-07-29T13:14:34.418Z,10.9
2022-07-29T13:15:27.483Z,10.2
2022-07-29T13:16:27.486Z,9.3
2022-07-29T13:17:32.614Z,9.0
2022-07-29T13:18:30.477Z,7.7
2022-07-29T13:19:37.043Z,6.2
2022-07-29T13:20:30.770Z,5.5
2022-07-29T13:21:27.150Z,4.3
2022-07-29T13:22:27.172Z,3.9
2022-07-29T13:23:27.234Z,3.8
2022-07-29T13:24:27.159Z,4.6
2022-07-29T13:25:28.810Z,4.6
2022-07-29T13:26:27.175Z,5.5
2022-07-29T13:27:29.519Z,5.4
2022-07-29T13:28:27.205Z,2.5
2022-07-29T13:29:31.447Z,2.9
2022-07-29T13:30:27.762Z,3.6
2022-07-29T13:31:27.310Z,2.8
2022-07-29T13:32:29.001Z,2.4
2022-07-29T13:33:27.179Z,2.9
2022-07-29T13:35:30.505Z,2.2
2022-07-29T13:38:31.106Z,4.0
2022-07-29T13:39:27.177Z,4.4
2022-07-29T13:40:27.447Z,4.6
2022-07-29T13:41:28.079Z,4.5
2022-07-29T13:42:28.423Z,5.1
2022-07-29T13:43:27.137Z,4.6
2022-07-29T13:44:27.253Z,4.7
2022-07-29T13:45:29.158Z,5.3
2022-07-29T13:46:27.148Z,5.1
2022-07-29T13:47:32.395Z,5.5
2022-07-29T13:48:27.122Z,5.4
2022-07-29T13:49:27.518Z,6.0
2022-07-29T13:50:27.275Z,5.9
2022-07-29T13:51:27.143Z,4.5
2022-07-29T13:52:27.124Z,3.9
2022-07-29T13:53:27.417Z,4.5
2022-07-29T13:54:27.099Z,4.2
2022-07-29T13:55:27.247Z,4.6
2022-07-29T13:56:27.351Z,4.2
2022-07-29T13:57:27.491Z,3.2
2022-07-29T13:58:27.133Z,4.3
2022-07-29T13:59:27.081Z,4.1
2022-07-29T14:00:27.264Z,3.8
2022-07-29T14:01:28.221Z,4.3
2022-07-29T14:02:27.121Z,3.8
2022-07-29T14:03:27.195Z,3.4
2022-07-29T14:04:27.205Z,3.9
2022-07-29T14:05:27.332Z,4.5
2022-07-29T14:06:27.198Z,4.1
2022-07-29T14:07:27.125Z,4.0
2022-07-29T14:08:27.451Z,4.1
2022-07-29T14:09:27.208Z,4.7
2022-07-29T14:10:28.434Z,4.1
2022-07-29T14:11:27.240Z,3.2
2022-07-29T14:12:27.202Z,3.6
2022-07-29T14:13:27.122Z,3.8
2022-07-29T14:14:27.172Z,3.7
2022-07-29T14:15:27.170Z,3.8
2022-07-29T14:16:27.197Z,3.7
2022-07-29T14:17:27.369Z,3.3
2022-07-29T14:18:27.223Z,3.1
2022-07-29T14:19:27.249Z,3.2
2022-07-29T14:20:27.320Z,3.2
2022-07-29T14:21:27.153Z,4.1
2022-07-29T14:22:27.170Z,4.5
2022-07-29T14:23:27.600Z,4.7
2022-07-29T14:24:27.082Z,4.6
2022-07-29T14:25:27.117Z,5.3
2022-07-29T14:26:27.183Z,5.0
2022-07-29T14:27:37.783Z,5.3
2022-07-29T14:28:27.312Z,4.6
2022-07-29T14:29:36.974Z,4.5
2022-07-29T14:30:27.167Z,3.9
2022-07-29T14:32:27.146Z,3.8
2022-07-29T14:33:27.111Z,3.4
2022-07-29T14:34:27.164Z,4.0
2022-07-29T14:35:27.229Z,4.6
2022-07-29T14:36:28.613Z,4.8
2022-07-29T14:37:27.097Z,5.5
2022-07-29T14:40:27.241Z,4.4
2022-07-29T14:41:29.248Z,3.7
2022-07-29T14:42:27.198Z,3.7
2022-07-29T14:49:27.625Z,5.7
2022-07-29T14:55:29.455Z,3.6
2022-07-29T14:56:36.684Z,2.4
2022-07-29T14:59:27.409Z,1.2
2022-07-29T15:00:27.782Z,1.0
2022-07-29T15:01:27.222Z,1.1
2022-07-29T15:02:45.741Z,1.0
2022-07-29T15:03:27.041Z,1.1
2022-07-29T15:04:27.124Z,1.0
2022-07-29T15:05:27.700Z,1.4
2022-07-29T15:06:27.631Z,1.1
2022-07-29T15:07:27.559Z,1.3
2022-07-29T15:08:29.280Z,1.8
2022-07-29T15:10:28.410Z,1.3
2022-07-29T15:11:27.102Z,1.5
2022-07-29T15:14:27.070Z,1.2
2022-07-29T15:16:27.130Z,1.4
2022-07-29T15:17:27.261Z,1.2
2022-07-29T15:18:27.112Z,1.3
2022-07-29T15:19:27.075Z,1.7
2022-07-29T15:20:28.213Z,1.6
2022-07-29T15:22:27.065Z,1.1
2022-07-29T15:23:27.011Z,1.1
2022-07-29T15:24:27.399Z,1.0
2022-07-29T15:25:28.669Z,1.5
2022-07-29T15:28:27.188Z,1.6
2022-07-29T15:30:29.601Z,1.4
2022-07-29T15:31:27.199Z,1.2
2022-07-29T15:32:27.510Z,2.1
2022-07-29T15:37:27.178Z,1.2
2022-07-29T15:40:27.210Z,1.2
2022-07-29T15:41:27.597Z,1.5
2022-07-29T15:42:27.090Z,1.3
2022-07-29T15:43:27.195Z,0.9
2022-07-29T15:44:28.355Z,1.0
2022-07-29T15:46:36.491Z,1.4
2022-07-29T15:47:27.613Z,1.3
2022-07-29T15:48:27.023Z,1.5
2022-07-29T15:49:48.531Z,1.2
2022-07-29T15:50:28.402Z,1.2
2022-07-29T15:51:27.301Z,1.4
2022-07-29T15:52:27.059Z,1.5
2022-07-29T15:53:27.101Z,1.2
2022-07-29T15:56:27.901Z,1.7
2022-07-29T15:59:28.018Z,1.8
2022-07-29T16:00:27.097Z,1.6
2022-07-29T16:01:27.481Z,2.0
2022-07-29T16:02:27.111Z,2.8
2022-07-29T16:06:27.119Z,5.4
2022-07-29T16:07:31.490Z,4.9
2022-07-29T16:08:27.058Z,4.7
2022-07-29T16:09:28.931Z,4.3
2022-07-29T16:10:27.206Z,3.7
2022-07-29T16:11:27.175Z,5.0
2022-07-29T16:12:27.049Z,5.8
2022-07-29T16:13:27.008Z,7.7
2022-07-29T16:14:28.311Z,7.9
2022-07-29T16:15:27.057Z,8.2
2022-07-29T16:16:27.172Z,8.2
2022-07-29T16:18:30.112Z,6.6
2022-07-29T16:19:27.028Z,6.2
2022-07-29T16:22:27.116Z,4.8
2022-07-29T16:23:27.014Z,5.4
2022-07-29T16:25:50.275Z,4.1
2022-07-29T16:26:27.100Z,2.8
2022-07-29T16:27:35.348Z,3.0
2022-07-29T16:28:26.995Z,2.6
2022-07-29T16:29:26.985Z,3.0
2022-07-29T16:30:27.040Z,2.2